createdAt,value
2023-04-01T00:14:27.937Z,10.5
2023-04-01T00:44:47.184Z,10.5
2023-04-01T01:15:04.000Z,10.3
2023-04-01T01:45:21.484Z,10.3
2023-04-01T02:15:39.015Z,10.25
2023-04-01T02:46:01.268Z,10.1
2023-04-01T03:16:21.374Z,10.05
2023-04-01T03:46:41.791Z,10.1
2023-04-01T04:16:59.532Z,10.15
2023-04-01T05:17:34.421Z,10
2023-04-01T05:47:52.952Z,10
2023-04-01T06:18:11.479Z,10.25
2023-04-01T06:48:29.758Z,10.25
2023-04-01T07:18:52.863Z,10.6
2023-04-01T07:49:12.322Z,11.55
2023-04-01T08:19:32.967Z,11.25
2023-04-01T09:20:08.557Z,11.2
2023-04-01T09:50:26.805Z,11.95
2023-04-01T10:20:46.352Z,12
2023-04-01T10:51:04.545Z,12.65
2023-04-01T11:21:26.643Z,13.2
2023-04-01T11:51:43.408Z,13.2
2023-04-01T12:21:59.593Z,12.75
2023-04-01T12:52:20.644Z,12.65
2023-04-01T13:22:34.451Z,12.35
2023-04-01T13:52:52.428Z,12.9
2023-04-01T14:23:11.889Z,12.85
2023-04-01T14:53:27.447Z,12.65
2023-04-01T15:23:45.796Z,13.45
2023-04-01T15:54:03.602Z,12.95
2023-04-01T16:24:22.100Z,12.5
2023-04-01T16:54:37.104Z,12
2023-04-01T17:24:57.438Z,11.6
2023-04-01T17:55:14.353Z,11.1
2023-04-01T18:25:30.870Z,10.7
2023-04-01T18:55:46.448Z,10.15
2023-04-01T19:26:04.045Z,9.95
2023-04-01T19:56:20.638Z,9.75
2023-04-01T20:26:37.030Z,9.65
2023-04-01T20:56:56.590Z,9.75
2023-04-01T21:27:16.794Z,9.85
2023-04-01T22:27:50.943Z,9.75
2023-04-01T22:58:09.148Z,9.8
2023-04-01T23:28:25.959Z,9.85
2023-04-01T23:58:44.584Z,9.75
